NZCH/CHC METAR and TAF weather

Enter ICAO airport designator
Station Type Date Time Source
NZCH METAR 2019/12/08 06:30 UTC NOAA

NZCH 080630Z AUTO 29017G28KT 250V330 9999 NCD 19/03 Q1000 NOSIG


Station Type Date Time Source
NZCH Decoded METAR 2019/12/08 06:30 UTC NOAA

Christchurch, New Zealand (NZCH) 43-29S 172-33E 30M
Dec 08, 2019 - 01:30 AM EST / 2019.12.08 0630 UTC
Wind: from the WNW (290 degrees) at 20 MPH (17 KT) gusting to 32 MPH (28 KT) (direction variable):0
Visibility: greater than 7 mile(s):0
Temperature: 66 F (19 C)
Dew Point: 37 F (3 C)
Relative Humidity: 34%
Pressure (altimeter): 29.53 in. Hg (1000 hPa)
ob: NZCH 080630Z AUTO 29017G28KT 250V330 9999 NCD 19/03 Q1000 NOSIG
cycle: 6

Station Type Date Time Source
NZCH TAF 2019/12/08 06:10 UTC NOAA

TAF NZCH 080507Z 0806/0906 32015G25KT 9999 -SHRA SCT040
BECMG 0808/0810 26005KT
TEMPO 0808/0816 5000 SHRA PROB30
TEMPO 0808/0816 2000 TSRA SCT020CB
FM081200 22015KT 9999 -SHRA SCT020 BKN060
BECMG 0813/0814 29005KT
BECMG 0821/0823 19012KT
BECMG 0902/0904 07012KT

Example: see airport list